Reuben, Nebraska
Current Conditions -  °F | °C
As of 9:55 AM on Friday 28 Nov 2014 (Local Time) from KHDE Reporting Station
Clear Clear  
Wind Chill: 44°   Ceiling: Unl
Heat Index: 49°   Visibility: 10mi
Dew Point: 27°   Wind: 12mph
Humidity: 42%   Direction: 250°WSW
Pressure: 29.82"   Gusts: NA
Location:  40.2849°N, 99.6171°W
Report Text: KHDE 281555Z AUTO 25010KT 10SM CLR 09/M03 A2982 RMK AO2 T00921030
Loading
Personal Weather Stations






























Interactive Weather Map New forecast layout! Learn more

10-Day Weather Forecast

Advertisements
Track Severe Weather on mobile